Time;durP1;ratioP1;P1;durP2;ratioP2;P2;SDS_P1;SDS_P2;PMS_P1;PMS_P2;Temp;Humidity;BMP_temperature;BMP_pressure;BME280_temperature;BME280_humidity;BME280_pressure;Samples;Min_cycle;Max_cycle;Signal;HPM_P1;HPM_P2
2024/03/12 00:00:22;;;;;;;8.82;2.47;;;;;;;12.95;63.64;98783.19;4491899;31;33343;-79
2024/03/12 00:02:51;;;;;;;3.42;1.52;;;;;;;13.14;62.61;98781.91;4489452;31;34193;-79
2024/03/12 00:05:19;;;;;;;1.60;1.50;;;;;;;12.99;63.36;98790.00;4476269;31;33812;-79
2024/03/12 00:07:49;;;;;;;1.98;1.75;;;;;;;13.14;62.43;98782.75;4490643;31;33842;-79
2024/03/12 00:10:19;;;;;;;7.28;1.67;;;;;;;13.29;62.18;98780.84;4490035;31;33303;-79
2024/03/12 00:12:48;;;;;;;1.48;1.37;;;;;;;13.41;61.84;98780.00;4478278;31;34426;-79
2024/03/12 00:15:18;;;;;;;1.40;1.35;;;;;;;13.15;62.35;98786.25;4480239;31;34747;-78
2024/03/12 00:17:46;;;;;;;2.00;1.67;;;;;;;12.99;63.02;98790.00;4478390;31;33111;-79
2024/03/12 00:20:18;;;;;;;6.30;1.20;;;;;;;12.97;63.29;98791.06;4476148;31;33521;-78
2024/03/12 00:22:48;;;;;;;5.22;1.23;;;;;;;13.06;63.20;98801.03;4488834;31;33866;-79
2024/03/12 00:25:19;;;;;;;0.90;0.88;;;;;;;12.88;63.92;98800.50;4469852;31;32513;-79
2024/03/12 00:27:47;;;;;;;1.48;1.37;;;;;;;13.18;62.76;98799.31;4476688;31;32726;-79
2024/03/12 00:30:18;;;;;;;1.35;1.25;;;;;;;13.30;62.66;98803.78;4477879;31;32488;-79
2024/03/12 00:32:49;;;;;;;0.45;0.45;;;;;;;13.06;63.75;98799.22;4478583;31;34043;-79
2024/03/12 00:35:17;;;;;;;2.90;2.62;;;;;;;12.64;65.23;98802.19;4476615;31;33539;-80
2024/03/12 00:37:48;;;;;;;3.03;2.83;;;;;;;12.88;64.76;98797.00;4491838;31;34638;-79
2024/03/12 00:40:17;;;;;;;1.75;1.65;;;;;;;12.73;65.30;98806.84;4475921;31;33258;-80
2024/03/12 00:42:44;;;;;;;0.70;0.70;;;;;;;13.11;64.09;98804.19;4476817;31;33479;-80
2024/03/12 00:45:13;;;;;;;1.77;1.30;;;;;;;12.95;64.73;98812.34;4476312;31;33012;-80
2024/03/12 00:47:42;;;;;;;1.35;0.73;;;;;;;12.91;64.78;98810.00;4478081;31;33980;-80
2024/03/12 00:50:14;;;;;;;3.30;1.98;;;;;;;13.07;64.55;98814.16;4478693;31;34249;-79
2024/03/12 00:52:43;;;;;;;0.55;0.55;;;;;;;12.91;64.62;98813.50;4493844;31;34562;-79
2024/03/12 00:55:16;;;;;;;1.50;1.37;;;;;;;12.93;64.92;98813.41;4479847;31;33902;-79
2024/03/12 00:57:45;;;;;;;1.80;1.60;;;;;;;13.01;64.93;98805.81;4479640;31;37545;-80
2024/03/12 01:00:25;;;;;;;0.77;0.75;;;;;;;12.92;64.70;98804.63;4480032;31;33731;-79
2024/03/12 01:02:54;;;;;;;1.05;0.55;;;;;;;12.78;65.06;98817.97;4493495;31;34296;-79
2024/03/12 01:05:24;;;;;;;1.48;1.05;;;;;;;12.71;65.33;98814.88;4490755;31;34667;-79
2024/03/12 01:07:58;;;;;;;0.80;0.80;;;;;;;12.95;64.92;98815.00;4493353;31;33826;-79
2024/03/12 01:10:28;;;;;;;1.98;1.77;;;;;;;12.99;64.83;98816.47;4490659;31;33338;-79
2024/03/12 01:12:57;;;;;;;0.30;0.30;;;;;;;13.08;64.61;98826.44;4492075;31;33863;-79
2024/03/12 01:15:26;;;;;;;1.20;1.10;;;;;;;13.13;64.18;98822.63;4492459;31;33903;-79
2024/03/12 01:17:56;;;;;;;0.20;0.20;;;;;;;12.98;64.29;98819.25;4477985;31;34378;-79
2024/03/12 01:20:25;;;;;;;1.08;0.98;;;;;;;12.77;64.90;98832.16;4492722;31;33655;-80
2024/03/12 01:22:54;;;;;;;0.52;0.52;;;;;;;12.77;64.73;98826.84;4492447;31;33746;-79
2024/03/12 01:25:22;;;;;;;0.40;0.40;;;;;;;12.81;63.94;98833.63;4479921;31;34784;-79
2024/03/12 01:27:55;;;;;;;0.28;0.28;;;;;;;12.51;65.03;98834.78;4465618;31;32539;-79
2024/03/12 01:30:27;;;;;;;0.22;0.22;;;;;;;12.69;64.41;98834.50;4490177;31;33552;-80
2024/03/12 01:32:57;;;;;;;0.22;0.22;;;;;;;12.03;66.20;98833.56;4482159;31;33709;-79
2024/03/12 01:35:26;;;;;;;0.03;0.03;;;;;;;12.43;64.93;98831.78;4491196;31;34654;-79
2024/03/12 01:37:56;;;;;;;0.40;0.40;;;;;;;12.76;63.15;98835.75;4477077;31;34797;-79
2024/03/12 01:40:26;;;;;;;0.82;0.80;;;;;;;12.56;64.33;98845.91;4480895;31;34310;-79
2024/03/12 01:42:57;;;;;;;0.17;0.17;;;;;;;12.85;63.04;98839.59;4466478;31;32708;-79
2024/03/12 01:45:25;;;;;;;2.43;1.90;;;;;;;12.69;63.54;98839.78;4477745;31;34133;-79
2024/03/12 01:47:55;;;;;;;0.00;0.00;;;;;;;12.56;63.41;98845.91;4463429;31;34352;-80
2024/03/12 01:50:24;;;;;;;0.03;0.03;;;;;;;12.53;63.30;98842.59;4493373;31;33287;-79
2024/03/12 01:52:56;;;;;;;1.08;0.55;;;;;;;12.60;62.66;98840.41;4478635;31;32617;-79
2024/03/12 01:55:23;;;;;;;0.45;0.40;;;;;;;12.51;62.54;98841.87;4483125;31;34740;-79
2024/03/12 01:57:51;;;;;;;0.52;0.37;;;;;;;12.65;62.11;98841.78;4478518;31;34707;-79
2024/03/12 02:00:20;;;;;;;1.00;0.20;;;;;;;12.72;61.61;98842.22;4480914;31;34274;-80
2024/03/12 02:02:52;;;;;;;0.17;0.17;;;;;;;12.80;60.30;98843.41;4478821;31;33767;-79
2024/03/12 02:05:22;;;;;;;;;;;;;;;12.33;61.06;98833.34;4475629;31;33101;-80
2024/03/12 02:07:51;;;;;;;0.00;0.00;;;;;;;12.45;60.53;98837.84;4491066;31;34295;-80
2024/03/12 02:10:20;;;;;;;0.25;0.25;;;;;;;12.78;59.40;98839.16;4479068;31;32559;-79
2024/03/12 02:12:48;;;;;;;0.00;0.00;;;;;;;12.74;59.25;98842.97;4487942;31;34608;-80
2024/03/12 02:15:23;;;;;;;0.10;0.10;;;;;;;12.63;59.85;98856.06;4490510;31;34742;-79
2024/03/12 02:17:52;;;;;;;0.00;0.00;;;;;;;12.67;59.54;98852.28;4489746;31;34038;-80
2024/03/12 02:20:21;;;;;;;0.45;0.45;;;;;;;12.70;59.48;98846.78;4491349;31;34263;-80
2024/03/12 02:22:53;;;;;;;0.00;0.00;;;;;;;12.42;60.42;98853.91;4478261;31;33895;-80
2024/03/12 02:25:22;;;;;;;0.10;0.10;;;;;;;12.38;60.49;98852.41;4490243;31;34775;-80
2024/03/12 02:27:51;;;;;;;0.20;0.20;;;;;;;12.39;60.37;98856.78;4491907;31;32904;-80
2024/03/12 02:30:20;;;;;;;0.95;0.65;;;;;;;12.29;60.42;98847.72;4493993;31;33215;-80
2024/03/12 02:32:48;;;;;;;0.08;0.08;;;;;;;12.28;60.93;98856.63;4480017;31;34264;-80
2024/03/12 02:35:17;;;;;;;0.00;0.00;;;;;;;12.14;61.41;98859.31;4479018;31;32685;-79
2024/03/12 02:37:45;;;;;;;3.72;0.28;;;;;;;11.82;62.07;98858.72;4492208;31;34459;-79
2024/03/12 02:40:15;;;;;;;0.05;0.05;;;;;;;11.87;62.40;98868.09;4477049;31;32568;-79
2024/03/12 02:42:44;;;;;;;0.00;0.00;;;;;;;12.00;61.79;98866.34;4484438;31;33026;-78
2024/03/12 02:45:15;;;;;;;2.78;1.00;;;;;;;12.26;61.17;98861.19;4465057;31;34553;-78
2024/03/12 02:47:45;;;;;;;0.25;0.22;;;;;;;12.29;60.90;98858.31;4488865;31;34269;-78
2024/03/12 02:50:18;;;;;;;0.00;0.00;;;;;;;12.41;60.61;98862.81;4492715;31;35006;-78
2024/03/12 02:52:46;;;;;;;0.00;0.00;;;;;;;12.51;60.37;98868.34;4465253;31;34286;-78
2024/03/12 02:55:14;;;;;;;0.00;0.00;;;;;;;12.08;61.77;98876.44;4488696;31;34670;-78
2024/03/12 02:57:43;;;;;;;0.00;0.00;;;;;;;12.11;61.75;98873.63;4490069;31;35176;-78
2024/03/12 03:00:11;;;;;;;0.00;0.00;;;;;;;12.03;61.98;98874.09;4466224;31;34795;-79
2024/03/12 03:02:42;;;;;;;0.10;0.10;;;;;;;12.07;62.18;98879.22;4491745;31;34214;-79
2024/03/12 03:05:10;;;;;;;0.03;0.00;;;;;;;11.83;62.51;98878.97;4477794;31;32955;-79
2024/03/12 03:07:42;;;;;;;0.10;0.10;;;;;;;11.91;62.49;98880.16;4477825;31;33757;-79
2024/03/12 03:10:11;;;;;;;0.13;0.10;;;;;;;11.80;62.80;98883.47;4478260;31;32913;-79
2024/03/12 03:12:41;;;;;;;0.00;0.00;;;;;;;11.98;62.17;98885.94;4492471;31;33872;-79
2024/03/12 03:15:11;;;;;;;0.73;0.37;;;;;;;12.24;61.37;98881.59;4478039;31;32776;-79
2024/03/12 03:17:42;;;;;;;0.20;0.20;;;;;;;11.85;62.80;98875.28;4489585;31;34722;-79
2024/03/12 03:20:12;;;;;;;0.10;0.10;;;;;;;11.76;63.46;98881.09;4490876;31;33990;-79
2024/03/12 03:22:44;;;;;;;0.30;0.30;;;;;;;12.03;62.73;98879.38;4477955;31;34115;-79
2024/03/12 03:25:12;;;;;;;;;;;;;;;11.80;63.12;98879.97;4478790;31;33596;-79
2024/03/12 03:27:41;;;;;;;0.00;0.00;;;;;;;12.18;62.28;98884.62;4478410;31;34809;-78
2024/03/12 03:30:12;;;;;;;0.00;0.00;;;;;;;11.59;64.00;98883.97;4492472;31;33559;-79
2024/03/12 03:32:40;;;;;;;0.00;0.00;;;;;;;11.66;63.83;98887.94;4492348;31;34618;-78
2024/03/12 03:35:08;;;;;;;0.43;0.43;;;;;;;11.46;64.29;98897.94;4459169;31;34944;-79
2024/03/12 03:37:37;;;;;;;0.00;0.00;;;;;;;11.70;63.77;98897.38;4478210;31;33865;-79
2024/03/12 03:40:09;;;;;;;0.90;0.43;;;;;;;11.61;63.84;98897.94;4476235;31;33450;-79
2024/03/12 03:42:38;;;;;;;0.10;0.10;;;;;;;11.75;63.14;98896.13;4479389;31;36281;-79
2024/03/12 03:45:06;;;;;;;0.00;0.00;;;;;;;11.43;64.09;98895.47;4463672;31;33879;-79
2024/03/12 03:47:34;;;;;;;0.10;0.10;;;;;;;11.35;64.38;98903.06;4475624;31;33564;-79
2024/03/12 03:50:05;;;;;;;0.30;0.10;;;;;;;11.33;64.22;98907.56;4476296;31;34296;-79
2024/03/12 03:52:33;;;;;;;0.00;0.00;;;;;;;11.44;64.30;98905.13;4474950;31;91051;-79
2024/03/12 03:55:01;;;;;;;1.10;0.62;;;;;;;11.44;63.71;98902.50;4477796;31;32574;-79
2024/03/12 03:57:29;;;;;;;0.32;0.32;;;;;;;11.64;63.46;98905.69;4475806;31;34329;-80
2024/03/12 03:59:57;;;;;;;0.00;0.00;;;;;;;11.66;63.13;98906.44;4490633;31;33618;-79
2024/03/12 04:02:25;;;;;;;0.00;0.00;;;;;;;11.58;63.37;98903.41;4478541;31;33816;-79
2024/03/12 04:04:53;;;;;;;0.55;0.30;;;;;;;11.60;63.09;98907.66;4480498;31;34659;-79
2024/03/12 04:07:21;;;;;;;0.00;0.00;;;;;;;11.47;63.33;98906.72;4478471;31;34124;-79
2024/03/12 04:09:48;;;;;;;0.10;0.10;;;;;;;11.56;63.30;98910.59;4492027;31;33631;-79
2024/03/12 04:12:16;;;;;;;0.62;0.62;;;;;;;11.64;63.26;98909.19;4479540;31;33957;-78
2024/03/12 04:14:44;;;;;;;0.00;0.00;;;;;;;11.72;62.96;98906.88;4486519;31;33669;-77
2024/03/12 04:17:11;;;;;;;0.10;0.10;;;;;;;11.45;63.64;98919.19;4477770;31;33201;-77
2024/03/12 04:19:40;;;;;;;0.20;0.20;;;;;;;11.41;64.12;98912.41;4477961;31;33199;-78
2024/03/12 04:22:08;;;;;;;0.43;0.43;;;;;;;11.47;64.05;98912.84;4479019;31;33698;-78
2024/03/12 04:24:37;;;;;;;0.00;0.00;;;;;;;11.42;63.89;98909.66;4478056;31;33824;-78
2024/03/12 04:27:06;;;;;;;2.83;0.28;;;;;;;11.32;64.27;98918.25;4478988;31;32427;-79
2024/03/12 04:29:33;;;;;;;0.32;0.32;;;;;;;11.69;63.24;98916.84;4463941;31;33956;-78
2024/03/12 04:32:02;;;;;;;0.00;0.00;;;;;;;11.99;62.10;98917.56;4491974;31;32680;-78
2024/03/12 04:34:32;;;;;;;0.47;0.47;;;;;;;11.36;63.58;98920.59;4493985;31;34089;-78
2024/03/12 04:37:00;;;;;;;0.00;0.00;;;;;;;11.71;63.02;98928.16;4478850;31;33314;-78
2024/03/12 04:39:31;;;;;;;0.55;0.10;;;;;;;11.59;63.24;98926.28;4479394;31;33251;-78
2024/03/12 04:42:05;;;;;;;0.00;0.00;;;;;;;11.43;63.35;98932.50;4491138;31;34674;-78
2024/03/12 04:44:33;;;;;;;0.00;0.00;;;;;;;11.60;62.97;98928.81;4481906;31;32987;-78
2024/03/12 04:47:01;;;;;;;0.00;0.00;;;;;;;11.72;62.58;98937.78;4467594;31;33218;-77
2024/03/12 04:49:28;;;;;;;0.00;0.00;;;;;;;11.41;63.34;98942.31;4476206;31;32909;-78
2024/03/12 04:51:56;;;;;;;0.00;0.00;;;;;;;11.38;63.62;98939.00;4467916;31;32287;-78
2024/03/12 04:54:24;;;;;;;0.00;0.00;;;;;;;11.33;63.97;98939.28;4454087;31;34525;-78
2024/03/12 04:56:52;;;;;;;0.00;0.00;;;;;;;11.33;63.68;98949.84;4479022;31;34764;-78
2024/03/12 04:59:19;;;;;;;0.62;0.62;;;;;;;11.29;64.32;98948.34;4488896;31;33575;-78
2024/03/12 05:01:49;;;;;;;0.20;0.08;;;;;;;11.28;63.60;98955.41;4480592;31;33503;-78
2024/03/12 05:04:17;;;;;;;0.00;0.00;;;;;;;11.15;64.48;98956.25;4468278;31;33342;-78
2024/03/12 05:06:50;;;;;;;0.30;0.30;;;;;;;10.87;65.10;98962.28;4490695;31;34451;-78
2024/03/12 05:09:18;;;;;;;0.00;0.00;;;;;;;11.18;64.35;98964.84;4492022;31;34316;-78
2024/03/12 05:11:47;;;;;;;0.00;0.00;;;;;;;11.25;63.85;98965.31;4490735;31;33583;-78
2024/03/12 05:14:16;;;;;;;0.00;0.00;;;;;;;11.39;63.55;98965.34;4479112;31;34523;-79
2024/03/12 05:16:43;;;;;;;0.13;0.13;;;;;;;11.37;63.90;98971.66;4489846;31;34198;-78
2024/03/12 05:19:11;;;;;;;0.00;0.00;;;;;;;11.45;63.23;98967.62;4467692;31;31728;-78
2024/03/12 05:21:40;;;;;;;0.10;0.10;;;;;;;11.44;63.74;98973.88;4452922;31;34153;-78
2024/03/12 05:24:08;;;;;;;0.00;0.00;;;;;;;11.53;63.19;98970.63;4477513;31;34608;-78
2024/03/12 05:26:43;;;;;;;0.00;0.00;;;;;;;11.33;64.38;98967.50;4479453;31;33034;-78
2024/03/12 05:29:12;;;;;;;0.75;0.47;;;;;;;11.04;64.96;98983.28;4481044;31;31962;-78
2024/03/12 05:31:40;;;;;;;0.00;0.00;;;;;;;11.31;64.30;98990.56;4477644;31;36018;-79
2024/03/12 05:34:16;;;;;;;0.10;0.05;;;;;;;10.96;65.31;98988.16;4482640;31;32990;-78
2024/03/12 05:36:51;;;;;;;0.00;0.00;;;;;;;11.55;63.63;98994.34;4490137;31;34284;-78
2024/03/12 05:39:47;;;;;;;0.45;0.43;;;;;;;11.47;63.64;98992.16;4470365;31;33083;-78
2024/03/12 05:50:38;;;;;;;0.00;0.00;;;;;;;11.14;65.03;98991.53;4489197;31;34058;-79
2024/03/12 05:53:06;;;;;;;0.57;0.22;;;;;;;11.02;65.70;99001.03;4480844;31;34525;-78
2024/03/12 05:55:34;;;;;;;0.22;0.15;;;;;;;11.01;65.84;99002.84;4476266;31;32975;-78
2024/03/12 05:58:04;;;;;;;0.00;0.00;;;;;;;11.12;65.01;99001.34;4478853;31;32638;-78
2024/03/12 06:00:32;;;;;;;0.00;0.00;;;;;;;11.13;65.95;99005.69;4490234;31;33218;-78
2024/03/12 06:03:01;;;;;;;0.00;0.00;;;;;;;11.12;65.84;99006.62;4479517;31;33163;-78
2024/03/12 06:05:28;;;;;;;1.45;1.12;;;;;;;11.21;65.37;99012.22;4489975;31;33340;-78
2024/03/12 06:07:59;;;;;;;0.03;0.03;;;;;;;11.08;65.32;99008.59;4493170;31;34144;-78
2024/03/12 06:10:27;;;;;;;0.35;0.30;;;;;;;11.28;64.82;99012.72;4449922;31;33804;-79
2024/03/12 06:12:56;;;;;;;0.13;0.13;;;;;;;11.20;65.35;99018.47;4490585;31;32656;-78
2024/03/12 06:15:23;;;;;;;0.00;0.00;;;;;;;11.22;64.80;99018.37;4473979;31;34759;-78
2024/03/12 06:17:52;;;;;;;0.00;0.00;;;;;;;11.36;63.56;99021.03;4464181;31;34949;-80
2024/03/12 06:20:20;;;;;;;0.00;0.00;;;;;;;11.21;64.51;99027.25;4479942;31;34434;-78
2024/03/12 06:22:48;;;;;;;0.55;0.55;;;;;;;11.03;65.04;99016.78;4493536;31;33388;-78
2024/03/12 06:25:16;;;;;;;1.27;1.08;;;;;;;11.06;64.71;99013.09;4478130;31;34018;-79
2024/03/12 06:27:44;;;;;;;0.00;0.00;;;;;;;11.25;64.40;99023.44;4463758;31;34126;-78
2024/03/12 06:30:14;;;;;;;0.20;0.20;;;;;;;11.26;64.08;99015.44;4479168;31;33325;-80
2024/03/12 06:32:42;;;;;;;0.05;0.05;;;;;;;11.33;63.80;99031.78;4476958;31;34505;-81
2024/03/12 06:35:10;;;;;;;0.32;0.25;;;;;;;11.29;64.54;99022.34;4490930;31;33611;-81
2024/03/12 06:37:39;;;;;;;0.00;0.00;;;;;;;11.38;63.48;99029.72;4477198;31;34328;-81
2024/03/12 06:40:07;;;;;;;0.25;0.25;;;;;;;11.54;62.96;99022.59;4478674;31;33897;-81
2024/03/12 06:42:35;;;;;;;0.28;0.28;;;;;;;11.36;63.31;99031.63;4478041;31;34059;-80
2024/03/12 06:45:03;;;;;;;0.00;0.00;;;;;;;11.25;63.47;99040.19;4491865;31;33887;-79
2024/03/12 06:47:36;;;;;;;0.57;0.57;;;;;;;11.41;62.82;99040.13;4453648;31;35599;-79
2024/03/12 06:50:08;;;;;;;0.00;0.00;;;;;;;11.17;63.51;99041.56;4491850;31;33828;-79
2024/03/12 06:52:36;;;;;;;0.00;0.00;;;;;;;11.26;63.78;99039.25;4466838;31;35543;-79
2024/03/12 06:55:05;;;;;;;0.00;0.00;;;;;;;11.40;63.33;99043.72;4464782;31;33389;-79
2024/03/12 06:57:34;;;;;;;0.10;0.10;;;;;;;11.36;62.97;99042.19;4479190;31;33948;-80
2024/03/12 07:00:09;;;;;;;0.55;0.55;;;;;;;11.46;62.62;99047.78;4477518;31;33490;-79
2024/03/12 07:02:38;;;;;;;0.00;0.00;;;;;;;11.44;62.79;99049.66;4478809;31;33966;-79
2024/03/12 07:05:09;;;;;;;3.42;1.48;;;;;;;11.82;61.61;99047.41;4475952;31;32113;-79
2024/03/12 07:07:43;;;;;;;0.25;0.25;;;;;;;11.98;60.77;99050.81;4474270;31;33828;-79
2024/03/12 07:10:11;;;;;;;0.52;0.32;;;;;;;12.10;60.68;99056.28;4488335;31;34338;-79
2024/03/12 07:12:42;;;;;;;0.50;0.50;;;;;;;12.29;59.88;99048.91;4479983;31;33800;-79
2024/03/12 07:15:11;;;;;;;0.10;0.10;;;;;;;12.42;59.55;99054.28;4472251;31;33680;-79
2024/03/12 07:17:39;;;;;;;0.10;0.10;;;;;;;11.83;61.03;99058.84;4489592;31;34174;-79
2024/03/12 07:20:10;;;;;;;0.10;0.10;;;;;;;11.99;60.87;99062.25;4475530;31;32588;-79
2024/03/12 07:22:42;;;;;;;0.80;0.80;;;;;;;12.27;59.78;99056.94;4482828;31;33936;-79
2024/03/12 07:25:19;;;;;;;0.00;0.00;;;;;;;12.02;60.73;99068.19;4476254;31;32586;-79
2024/03/12 07:27:48;;;;;;;0.25;0.25;;;;;;;11.56;61.92;99071.87;4487598;31;33539;-79
2024/03/12 07:30:17;;;;;;;0.20;0.20;;;;;;;11.65;62.07;99073.97;4478727;31;33535;-79
2024/03/12 07:32:46;;;;;;;0.43;0.43;;;;;;;11.84;62.07;99071.13;4477552;31;33769;-79
2024/03/12 07:35:15;;;;;;;0.52;0.37;;;;;;;12.22;61.08;99071.41;4489073;31;33618;-79
2024/03/12 07:37:43;;;;;;;3.40;1.33;;;;;;;12.47;60.24;99073.38;4472428;31;34743;-79
2024/03/12 07:40:17;;;;;;;0.03;0.03;;;;;;;12.44;60.21;99074.44;4479083;31;33370;-79
2024/03/12 07:42:45;;;;;;;0.00;0.00;;;;;;;12.41;59.95;99071.97;4477182;31;33696;-80
2024/03/12 07:45:14;;;;;;;0.30;0.30;;;;;;;12.52;60.04;99069.47;4464946;31;33294;-78
2024/03/12 07:47:42;;;;;;;0.00;0.00;;;;;;;12.64;59.60;99067.88;4474825;31;34125;-79
2024/03/12 07:50:13;;;;;;;2.03;1.23;;;;;;;12.70;59.41;99077.22;4486269;31;33625;-78
2024/03/12 07:52:41;;;;;;;0.43;0.37;;;;;;;12.68;59.23;99073.81;4478480;31;33067;-79
2024/03/12 07:55:10;;;;;;;0.35;0.10;;;;;;;12.45;60.08;99078.78;4489873;31;33970;-79
2024/03/12 07:57:38;;;;;;;0.00;0.00;;;;;;;12.61;59.81;99096.34;4475765;31;35609;-80
2024/03/12 08:00:14;;;;;;;1.67;0.62;;;;;;;12.44;59.87;99077.06;4474128;31;34345;-79
2024/03/12 08:02:43;;;;;;;0.05;0.05;;;;;;;12.45;59.39;99081.41;4490086;31;33793;-80
2024/03/12 08:05:12;;;;;;;0.35;0.35;;;;;;;12.69;59.50;99084.31;4489293;31;34743;-79
2024/03/12 08:07:43;;;;;;;0.40;0.30;;;;;;;12.87;59.17;99092.03;4489364;31;33809;-79
2024/03/12 08:10:12;;;;;;;;;;;;;;;12.49;58.91;99087.37;4480521;31;33642;-79
2024/03/12 08:12:40;;;;;;;1.23;1.12;;;;;;;12.60;59.22;99092.00;4475524;31;33978;-79
2024/03/12 08:15:08;;;;;;;0.00;0.00;;;;;;;12.35;59.67;99093.53;4491845;31;33975;-80
2024/03/12 08:17:37;;;;;;;0.20;0.13;;;;;;;12.30;59.48;99103.56;4474573;31;33556;-79
2024/03/12 08:20:10;;;;;;;0.10;0.10;;;;;;;12.39;59.30;99105.62;4477194;31;34019;-80
2024/03/12 08:22:39;;;;;;;0.00;0.00;;;;;;;12.16;59.55;99101.75;4475594;31;33562;-79
2024/03/12 08:25:11;;;;;;;0.00;0.00;;;;;;;12.73;58.23;99100.88;4478990;31;33787;-79
2024/03/12 08:27:40;;;;;;;0.00;0.00;;;;;;;12.46;58.57;99112.25;4489942;31;33336;-79
2024/03/12 08:30:09;;;;;;;0.52;0.52;;;;;;;12.28;59.56;99116.03;4479279;31;33139;-79
2024/03/12 08:32:38;;;;;;;0.17;0.17;;;;;;;12.30;59.40;99111.50;4486221;31;34437;-79
2024/03/12 08:35:08;;;;;;;0.60;0.60;;;;;;;12.24;59.68;99114.50;4487805;31;32484;-80
2024/03/12 08:37:37;;;;;;;0.05;0.05;;;;;;;12.65;58.67;99108.44;4489797;31;34892;-80
2024/03/12 08:40:07;;;;;;;0.20;0.20;;;;;;;12.56;58.51;99108.06;4487462;31;33893;-80
2024/03/12 08:42:35;;;;;;;0.20;0.05;;;;;;;12.56;58.68;99116.00;4476257;31;32048;-79
2024/03/12 08:45:17;;;;;;;0.00;0.00;;;;;;;12.55;58.74;99118.75;4488685;31;32467;-79
2024/03/12 08:47:50;;;;;;;0.30;0.30;;;;;;;12.60;58.18;99111.38;4494639;31;33877;-79
2024/03/12 08:50:18;;;;;;;0.00;0.00;;;;;;;12.37;59.10;99114.59;4477604;31;33643;-80
2024/03/12 08:52:46;;;;;;;0.00;0.00;;;;;;;12.42;58.65;99116.03;4477344;31;33413;-80
2024/03/12 08:55:16;;;;;;;0.10;0.10;;;;;;;12.20;59.27;99124.44;4476947;31;34376;-80
2024/03/12 08:57:44;;;;;;;0.20;0.20;;;;;;;12.24;59.53;99125.09;4479294;31;34303;-80
2024/03/12 09:00:12;;;;;;;0.20;0.20;;;;;;;12.27;59.53;99124.91;4489396;31;33299;-80
2024/03/12 09:02:40;;;;;;;0.00;0.00;;;;;;;12.69;58.94;99123.19;4479862;31;33679;-80
2024/03/12 09:05:09;;;;;;;0.30;0.30;;;;;;;12.80;58.06;99124.22;4488793;31;33515;-79
2024/03/12 09:07:37;;;;;;;0.03;0.03;;;;;;;12.75;58.76;99128.09;4489738;31;32511;-79
2024/03/12 09:10:11;;;;;;;0.77;0.57;;;;;;;12.70;58.74;99138.13;4477698;31;33470;-80
2024/03/12 09:12:40;;;;;;;0.00;0.00;;;;;;;12.71;58.68;99129.25;4477104;31;33093;-79
2024/03/12 09:15:09;;;;;;;0.08;0.08;;;;;;;12.68;58.72;99140.91;4478551;31;34296;-79
2024/03/12 09:17:38;;;;;;;0.93;0.93;;;;;;;12.62;59.16;99145.69;4477568;31;33083;-80
2024/03/12 09:20:09;;;;;;;0.20;0.20;;;;;;;12.65;59.05;99140.22;4468082;31;32954;-79
2024/03/12 09:22:39;;;;;;;0.57;0.20;;;;;;;12.92;57.50;99135.84;4476992;31;34019;-79
2024/03/12 09:25:08;;;;;;;0.30;0.30;;;;;;;12.75;58.37;99138.69;4491426;31;33849;-79
2024/03/12 09:27:41;;;;;;;0.43;0.43;;;;;;;12.75;58.51;99149.28;4476931;31;34751;-80
2024/03/12 09:30:10;;;;;;;0.45;0.45;;;;;;;12.67;58.64;99144.47;4487989;31;33661;-81
2024/03/12 09:32:39;;;;;;;0.05;0.05;;;;;;;12.50;59.12;99148.19;4480801;31;33128;-81
2024/03/12 09:35:07;;;;;;;0.08;0.08;;;;;;;12.57;59.80;99152.12;4490471;31;33711;-81
2024/03/12 09:37:37;;;;;;;0.22;0.22;;;;;;;12.43;59.40;99149.50;4466761;31;32900;-81
2024/03/12 09:40:05;;;;;;;0.28;0.10;;;;;;;12.43;59.33;99152.12;4477861;31;32542;-81
2024/03/12 09:42:38;;;;;;;0.10;0.10;;;;;;;12.90;58.12;99158.91;4480031;31;34825;-80
2024/03/12 09:45:07;;;;;;;;;;;;;;;12.48;58.38;99160.66;4476232;31;34161;-80
2024/03/12 09:47:35;;;;;;;0.00;0.00;;;;;;;12.77;57.98;99166.81;4478528;31;33266;-80
2024/03/12 09:50:11;;;;;;;0.57;0.57;;;;;;;12.30;59.33;99169.75;4464232;31;32467;-81
2024/03/12 09:52:39;;;;;;;0.00;0.00;;;;;;;12.34;59.15;99167.72;4477855;31;34993;-80
2024/03/12 09:55:15;;;;;;;0.32;0.32;;;;;;;12.68;58.17;99171.84;4478817;31;34265;-80
2024/03/12 09:57:46;;;;;;;0.13;0.13;;;;;;;12.96;56.96;99165.63;4491015;31;34309;-80
2024/03/12 10:00:27;;;;;;;0.00;0.00;;;;;;;13.12;56.28;99169.00;4479025;31;33372;-82
2024/03/12 10:02:55;;;;;;;0.32;0.32;;;;;;;12.85;57.80;99166.31;4492009;31;34607;-82
2024/03/12 10:05:23;;;;;;;0.00;0.00;;;;;;;13.50;56.44;99168.34;4478927;31;33903;-82
2024/03/12 10:08:06;;;;;;;0.30;0.17;;;;;;;13.39;56.17;99168.19;4477588;31;32551;-82
2024/03/12 10:10:37;;;;;;;0.00;0.00;;;;;;;13.35;55.77;99166.72;4488565;31;33853;-82
2024/03/12 10:13:08;;;;;;;0.77;0.22;;;;;;;13.61;55.25;99173.78;4490705;31;33335;-82
2024/03/12 10:15:37;;;;;;;1.30;1.05;;;;;;;12.91;57.32;99173.84;4477455;31;34045;-81
2024/03/12 10:18:07;;;;;;;0.90;0.90;;;;;;;12.75;57.93;99178.44;4475445;31;33160;-81
2024/03/12 10:20:48;;;;;;;0.10;0.10;;;;;;;13.00;57.54;99172.44;4491440;31;34147;-82
2024/03/12 10:23:18;;;;;;;0.00;0.00;;;;;;;13.21;56.77;99172.88;4465088;31;34543;-82
2024/03/12 10:25:46;;;;;;;0.37;0.37;;;;;;;13.11;56.73;99177.06;4477868;31;34285;-82
2024/03/12 10:28:19;;;;;;;0.00;0.00;;;;;;;13.14;57.26;99176.84;4476283;31;33858;-81
2024/03/12 10:30:47;;;;;;;0.32;0.32;;;;;;;13.26;55.90;99181.41;4464710;31;32867;-82
2024/03/12 10:33:20;;;;;;;0.20;0.20;;;;;;;13.56;55.28;99179.41;4475841;31;33375;-82
2024/03/12 10:35:51;;;;;;;1.02;0.30;;;;;;;13.53;55.45;99179.63;4490321;31;33557;-82
2024/03/12 10:38:27;;;;;;;0.70;0.70;;;;;;;13.57;55.11;99178.44;4475757;31;33463;-82
2024/03/12 10:40:58;;;;;;;0.13;0.13;;;;;;;13.33;55.06;99182.69;4476733;31;34873;-82
2024/03/12 10:43:26;;;;;;;0.17;0.17;;;;;;;13.40;54.89;99184.03;4465365;31;33980;-82
2024/03/12 10:45:54;;;;;;;0.00;0.00;;;;;;;13.61;54.52;99178.25;4464689;31;33097;-81
2024/03/12 10:48:25;;;;;;;0.00;0.00;;;;;;;13.78;53.58;99185.94;4475328;31;34409;-82
2024/03/12 10:50:55;;;;;;;0.00;0.00;;;;;;;13.67;53.95;99180.50;4477651;31;32669;-80
2024/03/12 10:53:24;;;;;;;0.00;0.00;;;;;;;13.71;54.22;99179.34;4476855;31;36087;-82
2024/03/12 10:55:53;;;;;;;0.10;0.10;;;;;;;13.70;54.48;99178.50;4475256;31;32911;-81
2024/03/12 10:58:21;;;;;;;0.10;0.10;;;;;;;13.65;54.73;99185.91;4491421;31;34093;-81
2024/03/12 11:00:50;;;;;;;0.28;0.17;;;;;;;13.64;54.18;99183.38;4478210;31;33366;-81
2024/03/12 11:03:23;;;;;;;0.47;0.47;;;;;;;13.73;54.01;99182.75;4487444;31;33648;-81
2024/03/12 11:05:54;;;;;;;0.20;0.13;;;;;;;13.80;53.96;99179.56;4479130;31;33836;-81
2024/03/12 11:08:23;;;;;;;0.85;0.75;;;;;;;14.00;53.30;99186.19;4489952;31;34060;-81
2024/03/12 11:10:52;;;;;;;0.00;0.00;;;;;;;14.14;52.49;99197.69;4476905;31;33326;-81
2024/03/12 11:13:20;;;;;;;0.50;0.28;;;;;;;13.98;53.14;99195.22;4475557;31;33053;-81
2024/03/12 11:15:48;;;;;;;0.00;0.00;;;;;;;14.03;53.14;99187.81;4478295;31;33826;-81
2024/03/12 11:18:34;;;;;;;0.37;0.13;;;;;;;14.15;52.26;99188.75;4472300;31;33463;-81
2024/03/12 11:21:05;;;;;;;0.10;0.10;;;;;;;14.41;52.38;99184.34;4492521;31;33527;-81
2024/03/12 11:23:36;;;;;;;2.08;1.45;;;;;;;14.38;51.08;99188.03;4455332;31;32482;-81
2024/03/12 11:26:04;;;;;;;1.95;0.70;;;;;;;14.29;51.53;99186.88;4473827;31;34004;-81
2024/03/12 11:28:47;;;;;;;0.10;0.10;;;;;;;13.82;52.76;99187.44;4474904;31;34901;-81
2024/03/12 11:31:15;;;;;;;;;;;;;;;14.08;52.73;99191.84;4488494;31;33495;-81
2024/03/12 11:33:52;;;;;;;0.00;0.00;;;;;;;14.32;51.75;99186.66;4476380;31;34059;-81
2024/03/12 11:36:46;;;;;;;0.37;0.35;;;;;;;14.01;52.90;99190.56;4478124;31;33889;-81
2024/03/12 11:39:29;;;;;;;0.30;0.17;;;;;;;14.42;51.59;99186.03;4475854;31;32695;-81
2024/03/12 11:42:10;;;;;;;;;;;;;;;14.45;50.97;99191.97;4475591;31;33479;-81
2024/03/12 11:44:47;;;;;;;2.05;1.15;;;;;;;13.95;52.21;99183.00;4476937;31;33286;-82
2024/03/12 11:47:31;;;;;;;0.80;0.65;;;;;;;14.05;52.69;99194.72;4488865;31;34788;-81
2024/03/12 11:50:01;;;;;;;0.00;0.00;;;;;;;14.25;52.45;99189.84;4477063;31;33278;-81
2024/03/12 11:52:33;;;;;;;0.55;0.30;;;;;;;14.26;51.30;99194.22;4477339;31;32529;-81
2024/03/12 11:55:03;;;;;;;4.68;1.05;;;;;;;13.98;51.53;99196.06;4477092;31;32773;-81